sensor_id;sensor_type;location;lat;lon;timestamp;temperature;humidity
59999;DHT22;45859;51.378;6.736;2023-06-22T00:02:25;22.00;99.90
59999;DHT22;45859;51.378;6.736;2023-06-22T00:04:50;22.00;99.90
59999;DHT22;45859;51.378;6.736;2023-06-22T00:07:16;22.00;99.90
59999;DHT22;45859;51.378;6.736;2023-06-22T00:09:41;21.90;99.90
59999;DHT22;45859;51.378;6.736;2023-06-22T00:12:07;22.00;99.90
59999;DHT22;45859;51.378;6.736;2023-06-22T00:14:33;22.00;99.90
59999;DHT22;45859;51.378;6.736;2023-06-22T00:16:59;22.00;99.90
59999;DHT22;45859;51.378;6.736;2023-06-22T00:19:24;22.00;99.90
59999;DHT22;45859;51.378;6.736;2023-06-22T00:21:50;22.00;99.90
59999;DHT22;45859;51.378;6.736;2023-06-22T00:24:20;21.90;99.90
59999;DHT22;45859;51.378;6.736;2023-06-22T00:26:46;21.80;99.90
59999;DHT22;45859;51.378;6.736;2023-06-22T00:29:12;21.80;99.90
59999;DHT22;45859;51.378;6.736;2023-06-22T00:31:37;21.80;99.90
59999;DHT22;45859;51.378;6.736;2023-06-22T00:34:03;21.70;99.90
59999;DHT22;45859;51.378;6.736;2023-06-22T00:36:28;21.70;99.90
59999;DHT22;45859;51.378;6.736;2023-06-22T00:38:54;21.70;99.90
59999;DHT22;45859;51.378;6.736;2023-06-22T00:41:20;21.60;99.90
59999;DHT22;45859;51.378;6.736;2023-06-22T00:43:45;21.50;99.90
59999;DHT22;45859;51.378;6.736;2023-06-22T00:46:11;21.50;99.90
59999;DHT22;45859;51.378;6.736;2023-06-22T00:48:38;21.50;99.90
59999;DHT22;45859;51.378;6.736;2023-06-22T00:51:05;21.40;99.90
59999;DHT22;45859;51.378;6.736;2023-06-22T00:53:31;21.40;99.90
59999;DHT22;45859;51.378;6.736;2023-06-22T00:56:00;21.40;99.90
59999;DHT22;45859;51.378;6.736;2023-06-22T00:58:26;21.40;99.90
59999;DHT22;45859;51.378;6.736;2023-06-22T01:00:52;21.30;99.90
59999;DHT22;45859;51.378;6.736;2023-06-22T01:03:17;21.30;99.90
59999;DHT22;45859;51.378;6.736;2023-06-22T01:05:44;21.30;99.90
59999;DHT22;45859;51.378;6.736;2023-06-22T01:08:33;21.20;99.90
59999;DHT22;45859;51.378;6.736;2023-06-22T01:11:07;21.20;99.90
59999;DHT22;45859;51.378;6.736;2023-06-22T01:16:35;21.10;99.90
59999;DHT22;45859;51.378;6.736;2023-06-22T01:19:23;21.00;99.90
59999;DHT22;45859;51.378;6.736;2023-06-22T01:21:53;21.00;99.90
59999;DHT22;45859;51.378;6.736;2023-06-22T01:24:32;21.00;99.90
59999;DHT22;45859;51.378;6.736;2023-06-22T01:30:07;20.90;99.90
59999;DHT22;45859;51.378;6.736;2023-06-22T01:32:36;20.90;99.90
59999;DHT22;45859;51.378;6.736;2023-06-22T01:35:05;20.90;99.90
59999;DHT22;45859;51.378;6.736;2023-06-22T01:37:33;20.90;99.90
59999;DHT22;45859;51.378;6.736;2023-06-22T01:40:00;20.80;99.90
59999;DHT22;45859;51.378;6.736;2023-06-22T01:42:26;20.90;99.90
59999;DHT22;45859;51.378;6.736;2023-06-22T01:44:53;20.90;99.90
59999;DHT22;45859;51.378;6.736;2023-06-22T01:47:20;20.90;99.90
59999;DHT22;45859;51.378;6.736;2023-06-22T01:49:47;20.90;99.90
59999;DHT22;45859;51.378;6.736;2023-06-22T01:52:13;20.90;99.90
59999;DHT22;45859;51.378;6.736;2023-06-22T01:54:39;20.90;99.90
59999;DHT22;45859;51.378;6.736;2023-06-22T01:57:06;20.90;99.90
59999;DHT22;45859;51.378;6.736;2023-06-22T02:02:10;21.00;99.90
59999;DHT22;45859;51.378;6.736;2023-06-22T02:07:12;21.00;99.90
59999;DHT22;45859;51.378;6.736;2023-06-22T02:09:41;21.00;99.90
59999;DHT22;45859;51.378;6.736;2023-06-22T02:12:11;21.00;99.90
59999;DHT22;45859;51.378;6.736;2023-06-22T02:14:38;21.00;99.90
59999;DHT22;45859;51.378;6.736;2023-06-22T02:17:04;20.90;99.90
59999;DHT22;45859;51.378;6.736;2023-06-22T02:19:36;20.90;99.90
59999;DHT22;45859;51.378;6.736;2023-06-22T02:22:03;20.80;99.90
59999;DHT22;45859;51.378;6.736;2023-06-22T02:24:28;20.80;99.90
59999;DHT22;45859;51.378;6.736;2023-06-22T02:26:58;20.80;99.90
59999;DHT22;45859;51.378;6.736;2023-06-22T02:29:24;20.80;99.90
59999;DHT22;45859;51.378;6.736;2023-06-22T02:31:49;20.70;99.90
59999;DHT22;45859;51.378;6.736;2023-06-22T02:34:15;20.70;99.90
59999;DHT22;45859;51.378;6.736;2023-06-22T02:36:45;20.70;99.90
59999;DHT22;45859;51.378;6.736;2023-06-22T02:39:20;20.80;99.90
59999;DHT22;45859;51.378;6.736;2023-06-22T02:41:48;20.80;99.90
59999;DHT22;45859;51.378;6.736;2023-06-22T02:44:14;20.80;99.90
59999;DHT22;45859;51.378;6.736;2023-06-22T02:46:40;20.70;99.90
59999;DHT22;45859;51.378;6.736;2023-06-22T02:49:05;20.80;99.90
59999;DHT22;45859;51.378;6.736;2023-06-22T02:51:33;20.70;99.90
59999;DHT22;45859;51.378;6.736;2023-06-22T02:54:00;20.70;99.90
59999;DHT22;45859;51.378;6.736;2023-06-22T02:56:27;20.80;99.90
59999;DHT22;45859;51.378;6.736;2023-06-22T02:58:52;20.70;99.90
59999;DHT22;45859;51.378;6.736;2023-06-22T03:01:18;20.70;99.90
59999;DHT22;45859;51.378;6.736;2023-06-22T03:03:50;20.60;99.90
59999;DHT22;45859;51.378;6.736;2023-06-22T03:06:15;20.60;99.90
59999;DHT22;45859;51.378;6.736;2023-06-22T03:08:41;20.50;99.90
59999;DHT22;45859;51.378;6.736;2023-06-22T03:11:07;20.50;99.90
59999;DHT22;45859;51.378;6.736;2023-06-22T03:13:33;20.40;99.90
59999;DHT22;45859;51.378;6.736;2023-06-22T03:15:59;20.40;99.90
59999;DHT22;45859;51.378;6.736;2023-06-22T03:18:25;20.50;99.90
59999;DHT22;45859;51.378;6.736;2023-06-22T03:20:50;20.50;99.90
59999;DHT22;45859;51.378;6.736;2023-06-22T03:23:16;20.50;99.90
59999;DHT22;45859;51.378;6.736;2023-06-22T03:25:42;20.50;99.90
59999;DHT22;45859;51.378;6.736;2023-06-22T03:28:10;20.50;99.90
59999;DHT22;45859;51.378;6.736;2023-06-22T03:30:36;20.40;99.90
59999;DHT22;45859;51.378;6.736;2023-06-22T03:33:01;20.50;99.90
59999;DHT22;45859;51.378;6.736;2023-06-22T03:35:27;20.50;99.90
59999;DHT22;45859;51.378;6.736;2023-06-22T03:37:53;20.50;99.90
59999;DHT22;45859;51.378;6.736;2023-06-22T03:40:19;20.40;99.90
59999;DHT22;45859;51.378;6.736;2023-06-22T03:42:45;20.40;99.90
59999;DHT22;45859;51.378;6.736;2023-06-22T03:45:11;20.40;99.90
59999;DHT22;45859;51.378;6.736;2023-06-22T03:47:37;20.40;99.90
59999;DHT22;45859;51.378;6.736;2023-06-22T03:50:03;20.40;99.90
59999;DHT22;45859;51.378;6.736;2023-06-22T03:52:29;20.50;99.90
59999;DHT22;45859;51.378;6.736;2023-06-22T03:54:55;20.60;99.90
59999;DHT22;45859;51.378;6.736;2023-06-22T03:57:21;20.60;99.90
59999;DHT22;45859;51.378;6.736;2023-06-22T03:59:47;20.60;99.90
59999;DHT22;45859;51.378;6.736;2023-06-22T04:02:13;20.70;99.90
59999;DHT22;45859;51.378;6.736;2023-06-22T04:04:38;20.70;99.90
59999;DHT22;45859;51.378;6.736;2023-06-22T04:07:05;20.70;99.90
59999;DHT22;45859;51.378;6.736;2023-06-22T04:09:30;20.70;99.90
59999;DHT22;45859;51.378;6.736;2023-06-22T04:11:56;20.80;99.90
59999;DHT22;45859;51.378;6.736;2023-06-22T04:14:22;20.80;99.90
59999;DHT22;45859;51.378;6.736;2023-06-22T04:16:47;20.80;99.90
59999;DHT22;45859;51.378;6.736;2023-06-22T04:19:13;20.80;99.90
59999;DHT22;45859;51.378;6.736;2023-06-22T04:21:45;20.80;99.90
59999;DHT22;45859;51.378;6.736;2023-06-22T04:24:11;20.90;99.90
59999;DHT22;45859;51.378;6.736;2023-06-22T04:26:37;20.90;99.90
59999;DHT22;45859;51.378;6.736;2023-06-22T04:29:07;20.90;99.90
59999;DHT22;45859;51.378;6.736;2023-06-22T04:31:34;20.90;99.90
59999;DHT22;45859;51.378;6.736;2023-06-22T04:34:04;20.90;99.90
59999;DHT22;45859;51.378;6.736;2023-06-22T04:36:36;20.80;99.90
59999;DHT22;45859;51.378;6.736;2023-06-22T04:39:07;20.80;99.90
59999;DHT22;45859;51.378;6.736;2023-06-22T04:41:39;20.60;99.90
59999;DHT22;45859;51.378;6.736;2023-06-22T04:44:12;20.60;99.90
59999;DHT22;45859;51.378;6.736;2023-06-22T04:46:38;20.60;99.90
59999;DHT22;45859;51.378;6.736;2023-06-22T04:49:08;20.50;99.90
59999;DHT22;45859;51.378;6.736;2023-06-22T04:51:41;20.50;99.90
59999;DHT22;45859;51.378;6.736;2023-06-22T04:54:08;20.50;99.90
59999;DHT22;45859;51.378;6.736;2023-06-22T04:56:34;20.40;99.90
59999;DHT22;45859;51.378;6.736;2023-06-22T04:59:00;20.30;99.90
59999;DHT22;45859;51.378;6.736;2023-06-22T05:01:26;20.20;99.90
59999;DHT22;45859;51.378;6.736;2023-06-22T05:03:52;20.00;99.90
59999;DHT22;45859;51.378;6.736;2023-06-22T05:06:22;19.90;99.90
59999;DHT22;45859;51.378;6.736;2023-06-22T05:08:54;19.90;99.90
59999;DHT22;45859;51.378;6.736;2023-06-22T05:11:27;20.00;99.90
59999;DHT22;45859;51.378;6.736;2023-06-22T05:13:54;20.00;99.90
59999;DHT22;45859;51.378;6.736;2023-06-22T05:16:20;20.10;99.90
59999;DHT22;45859;51.378;6.736;2023-06-22T05:18:55;20.20;99.90
59999;DHT22;45859;51.378;6.736;2023-06-22T05:21:27;20.30;99.90
59999;DHT22;45859;51.378;6.736;2023-06-22T05:23:53;20.30;99.90
59999;DHT22;45859;51.378;6.736;2023-06-22T05:26:21;20.40;99.90
59999;DHT22;45859;51.378;6.736;2023-06-22T05:28:47;20.50;99.90
59999;DHT22;45859;51.378;6.736;2023-06-22T05:31:16;20.50;99.90
59999;DHT22;45859;51.378;6.736;2023-06-22T05:33:43;20.50;99.90
59999;DHT22;45859;51.378;6.736;2023-06-22T05:36:09;20.40;99.90
59999;DHT22;45859;51.378;6.736;2023-06-22T05:38:36;20.30;99.90
59999;DHT22;45859;51.378;6.736;2023-06-22T05:41:02;20.10;99.90
59999;DHT22;45859;51.378;6.736;2023-06-22T05:43:28;19.80;99.90
59999;DHT22;45859;51.378;6.736;2023-06-22T05:45:54;19.60;99.90
59999;DHT22;45859;51.378;6.736;2023-06-22T05:48:19;19.40;99.90
59999;DHT22;45859;51.378;6.736;2023-06-22T05:50:45;19.40;99.90
59999;DHT22;45859;51.378;6.736;2023-06-22T05:53:11;19.30;99.90
59999;DHT22;45859;51.378;6.736;2023-06-22T05:55:37;19.20;99.90
59999;DHT22;45859;51.378;6.736;2023-06-22T05:58:02;19.20;99.90
59999;DHT22;45859;51.378;6.736;2023-06-22T06:00:31;19.20;99.90
59999;DHT22;45859;51.378;6.736;2023-06-22T06:02:57;19.20;99.90
59999;DHT22;45859;51.378;6.736;2023-06-22T06:05:22;19.30;99.90
59999;DHT22;45859;51.378;6.736;2023-06-22T06:07:51;19.30;99.90
59999;DHT22;45859;51.378;6.736;2023-06-22T06:10:17;19.40;99.90
59999;DHT22;45859;51.378;6.736;2023-06-22T06:12:42;19.40;99.90
59999;DHT22;45859;51.378;6.736;2023-06-22T06:15:08;19.50;99.90
59999;DHT22;45859;51.378;6.736;2023-06-22T06:17:34;19.50;99.90
59999;DHT22;45859;51.378;6.736;2023-06-22T06:20:01;19.60;99.90
59999;DHT22;45859;51.378;6.736;2023-06-22T06:22:28;19.60;99.90
59999;DHT22;45859;51.378;6.736;2023-06-22T06:24:54;19.60;99.90
59999;DHT22;45859;51.378;6.736;2023-06-22T06:27:20;19.50;99.90
59999;DHT22;45859;51.378;6.736;2023-06-22T06:29:45;19.50;99.90
59999;DHT22;45859;51.378;6.736;2023-06-22T06:32:13;19.50;99.90
59999;DHT22;45859;51.378;6.736;2023-06-22T06:34:39;19.50;99.90
59999;DHT22;45859;51.378;6.736;2023-06-22T06:37:06;19.60;99.90
59999;DHT22;45859;51.378;6.736;2023-06-22T06:39:32;19.70;99.90
59999;DHT22;45859;51.378;6.736;2023-06-22T06:41:57;19.70;99.90
59999;DHT22;45859;51.378;6.736;2023-06-22T06:44:23;19.90;99.90
59999;DHT22;45859;51.378;6.736;2023-06-22T06:46:49;20.00;99.90
59999;DHT22;45859;51.378;6.736;2023-06-22T06:49:14;20.10;99.90
59999;DHT22;45859;51.378;6.736;2023-06-22T06:51:40;20.20;99.90
59999;DHT22;45859;51.378;6.736;2023-06-22T06:54:05;20.20;99.90
59999;DHT22;45859;51.378;6.736;2023-06-22T06:56:31;20.30;99.90
59999;DHT22;45859;51.378;6.736;2023-06-22T06:58:58;20.30;99.90
59999;DHT22;45859;51.378;6.736;2023-06-22T07:01:24;20.30;99.90
59999;DHT22;45859;51.378;6.736;2023-06-22T07:03:49;20.30;99.90
59999;DHT22;45859;51.378;6.736;2023-06-22T07:06:15;20.30;99.90
59999;DHT22;45859;51.378;6.736;2023-06-22T07:08:42;20.30;99.90
59999;DHT22;45859;51.378;6.736;2023-06-22T07:11:08;20.30;99.90
59999;DHT22;45859;51.378;6.736;2023-06-22T07:13:34;20.20;99.90
59999;DHT22;45859;51.378;6.736;2023-06-22T07:15:59;20.20;99.90
59999;DHT22;45859;51.378;6.736;2023-06-22T07:18:25;20.20;99.90
59999;DHT22;45859;51.378;6.736;2023-06-22T07:20:52;20.20;99.90
59999;DHT22;45859;51.378;6.736;2023-06-22T07:23:17;20.20;99.90
59999;DHT22;45859;51.378;6.736;2023-06-22T07:25:43;20.30;99.90
59999;DHT22;45859;51.378;6.736;2023-06-22T07:28:09;20.40;99.90
59999;DHT22;45859;51.378;6.736;2023-06-22T07:30:35;20.50;99.90
59999;DHT22;45859;51.378;6.736;2023-06-22T07:33:01;20.50;99.90
59999;DHT22;45859;51.378;6.736;2023-06-22T07:35:28;20.50;99.90
59999;DHT22;45859;51.378;6.736;2023-06-22T07:37:54;20.50;99.90
59999;DHT22;45859;51.378;6.736;2023-06-22T07:40:20;20.50;99.90
59999;DHT22;45859;51.378;6.736;2023-06-22T07:42:45;20.50;99.90
59999;DHT22;45859;51.378;6.736;2023-06-22T07:45:14;20.50;99.90
59999;DHT22;45859;51.378;6.736;2023-06-22T07:47:39;20.50;99.90
59999;DHT22;45859;51.378;6.736;2023-06-22T07:50:05;20.40;99.90
59999;DHT22;45859;51.378;6.736;2023-06-22T07:52:31;20.20;99.90
59999;DHT22;45859;51.378;6.736;2023-06-22T07:54:57;20.20;99.90
59999;DHT22;45859;51.378;6.736;2023-06-22T07:57:23;20.00;99.90
59999;DHT22;45859;51.378;6.736;2023-06-22T07:59:48;19.80;99.90
59999;DHT22;45859;51.378;6.736;2023-06-22T08:02:14;19.60;99.90
59999;DHT22;45859;51.378;6.736;2023-06-22T08:04:40;19.50;99.90
59999;DHT22;45859;51.378;6.736;2023-06-22T08:07:07;19.40;99.90
59999;DHT22;45859;51.378;6.736;2023-06-22T08:09:33;19.30;99.90
59999;DHT22;45859;51.378;6.736;2023-06-22T08:11:59;19.40;99.90
59999;DHT22;45859;51.378;6.736;2023-06-22T08:14:29;19.40;99.90
59999;DHT22;45859;51.378;6.736;2023-06-22T08:16:55;19.50;99.90
59999;DHT22;45859;51.378;6.736;2023-06-22T08:19:20;19.60;99.90
59999;DHT22;45859;51.378;6.736;2023-06-22T08:21:46;19.70;99.90
59999;DHT22;45859;51.378;6.736;2023-06-22T08:24:12;19.90;99.90
59999;DHT22;45859;51.378;6.736;2023-06-22T08:26:38;20.10;99.90
59999;DHT22;45859;51.378;6.736;2023-06-22T08:29:04;20.20;99.90
59999;DHT22;45859;51.378;6.736;2023-06-22T08:31:31;20.40;99.90
59999;DHT22;45859;51.378;6.736;2023-06-22T08:33:57;20.60;99.90
59999;DHT22;45859;51.378;6.736;2023-06-22T08:36:22;20.80;99.90
59999;DHT22;45859;51.378;6.736;2023-06-22T08:38:48;21.10;99.90
59999;DHT22;45859;51.378;6.736;2023-06-22T08:41:16;21.10;99.90
59999;DHT22;45859;51.378;6.736;2023-06-22T08:43:43;21.10;99.90
59999;DHT22;45859;51.378;6.736;2023-06-22T08:46:09;21.10;99.90
59999;DHT22;45859;51.378;6.736;2023-06-22T08:48:35;21.20;99.90
59999;DHT22;45859;51.378;6.736;2023-06-22T08:51:01;21.20;99.90
59999;DHT22;45859;51.378;6.736;2023-06-22T08:53:27;21.30;99.90
59999;DHT22;45859;51.378;6.736;2023-06-22T08:55:53;21.30;99.90
59999;DHT22;45859;51.378;6.736;2023-06-22T08:58:18;21.50;99.90
59999;DHT22;45859;51.378;6.736;2023-06-22T09:00:45;21.70;99.90
59999;DHT22;45859;51.378;6.736;2023-06-22T09:03:11;22.00;99.90
59999;DHT22;45859;51.378;6.736;2023-06-22T09:05:37;22.00;99.90
59999;DHT22;45859;51.378;6.736;2023-06-22T09:08:03;22.10;99.90
59999;DHT22;45859;51.378;6.736;2023-06-22T09:10:29;22.50;99.90
59999;DHT22;45859;51.378;6.736;2023-06-22T09:12:54;23.00;99.90
59999;DHT22;45859;51.378;6.736;2023-06-22T09:15:20;23.30;99.90
59999;DHT22;45859;51.378;6.736;2023-06-22T09:17:46;23.90;99.90
59999;DHT22;45859;51.378;6.736;2023-06-22T09:20:12;24.20;99.90
59999;DHT22;45859;51.378;6.736;2023-06-22T09:22:37;24.00;99.90
59999;DHT22;45859;51.378;6.736;2023-06-22T09:25:04;24.30;99.90
59999;DHT22;45859;51.378;6.736;2023-06-22T09:27:30;24.40;99.90
59999;DHT22;45859;51.378;6.736;2023-06-22T09:29:55;24.50;99.90
59999;DHT22;45859;51.378;6.736;2023-06-22T09:32:24;25.30;99.90
59999;DHT22;45859;51.378;6.736;2023-06-22T09:34:49;26.30;99.90
59999;DHT22;45859;51.378;6.736;2023-06-22T09:37:15;26.60;99.90
59999;DHT22;45859;51.378;6.736;2023-06-22T09:39:40;26.50;99.90
59999;DHT22;45859;51.378;6.736;2023-06-22T09:42:06;26.00;99.90
59999;DHT22;45859;51.378;6.736;2023-06-22T09:44:32;25.40;99.90
59999;DHT22;45859;51.378;6.736;2023-06-22T09:46:58;25.10;99.90
59999;DHT22;45859;51.378;6.736;2023-06-22T09:49:23;25.40;99.90
59999;DHT22;45859;51.378;6.736;2023-06-22T09:51:49;25.40;99.90
59999;DHT22;45859;51.378;6.736;2023-06-22T09:54:16;25.70;99.90
59999;DHT22;45859;51.378;6.736;2023-06-22T09:56:41;26.00;99.90
59999;DHT22;45859;51.378;6.736;2023-06-22T09:59:07;26.10;99.90
59999;DHT22;45859;51.378;6.736;2023-06-22T10:01:33;26.50;99.90
59999;DHT22;45859;51.378;6.736;2023-06-22T10:03:58;26.40;99.90
59999;DHT22;45859;51.378;6.736;2023-06-22T10:06:24;26.50;99.90
59999;DHT22;45859;51.378;6.736;2023-06-22T10:08:51;27.20;99.90
59999;DHT22;45859;51.378;6.736;2023-06-22T10:11:17;26.60;99.90
59999;DHT22;45859;51.378;6.736;2023-06-22T10:13:42;26.70;99.90
59999;DHT22;45859;51.378;6.736;2023-06-22T10:16:08;26.70;99.90
59999;DHT22;45859;51.378;6.736;2023-06-22T10:18:34;26.80;99.90
59999;DHT22;45859;51.378;6.736;2023-06-22T10:20:59;26.10;99.90
59999;DHT22;45859;51.378;6.736;2023-06-22T10:23:25;26.60;99.90
59999;DHT22;45859;51.378;6.736;2023-06-22T10:25:51;26.70;99.90
59999;DHT22;45859;51.378;6.736;2023-06-22T10:28:16;26.40;99.90
59999;DHT22;45859;51.378;6.736;2023-06-22T10:30:42;26.60;99.90
59999;DHT22;45859;51.378;6.736;2023-06-22T10:33:08;26.70;99.90
59999;DHT22;45859;51.378;6.736;2023-06-22T10:35:35;26.50;99.90
59999;DHT22;45859;51.378;6.736;2023-06-22T10:38:03;26.20;99.90
59999;DHT22;45859;51.378;6.736;2023-06-22T10:40:29;25.70;99.90
59999;DHT22;45859;51.378;6.736;2023-06-22T10:42:54;25.80;99.90
59999;DHT22;45859;51.378;6.736;2023-06-22T10:45:20;25.50;99.90
59999;DHT22;45859;51.378;6.736;2023-06-22T10:47:45;25.20;99.90
59999;DHT22;45859;51.378;6.736;2023-06-22T10:50:11;25.20;99.90
59999;DHT22;45859;51.378;6.736;2023-06-22T10:52:37;25.30;99.90
59999;DHT22;45859;51.378;6.736;2023-06-22T10:55:03;25.10;99.90
59999;DHT22;45859;51.378;6.736;2023-06-22T10:57:29;25.10;99.90
59999;DHT22;45859;51.378;6.736;2023-06-22T10:59:55;25.10;99.90
59999;DHT22;45859;51.378;6.736;2023-06-22T11:02:20;25.10;99.90
59999;DHT22;45859;51.378;6.736;2023-06-22T11:04:46;25.10;99.90
59999;DHT22;45859;51.378;6.736;2023-06-22T11:07:13;24.90;99.90
59999;DHT22;45859;51.378;6.736;2023-06-22T11:09:38;24.60;99.90
59999;DHT22;45859;51.378;6.736;2023-06-22T11:12:05;24.40;99.90
59999;DHT22;45859;51.378;6.736;2023-06-22T11:14:31;24.00;99.90
59999;DHT22;45859;51.378;6.736;2023-06-22T11:16:58;23.60;99.90
59999;DHT22;45859;51.378;6.736;2023-06-22T11:19:24;23.30;99.90
59999;DHT22;45859;51.378;6.736;2023-06-22T11:21:50;23.00;99.90
59999;DHT22;45859;51.378;6.736;2023-06-22T11:24:16;22.70;99.90
59999;DHT22;45859;51.378;6.736;2023-06-22T11:26:42;22.20;99.90
59999;DHT22;45859;51.378;6.736;2023-06-22T11:29:07;21.70;99.90
59999;DHT22;45859;51.378;6.736;2023-06-22T11:31:34;21.30;99.90
59999;DHT22;45859;51.378;6.736;2023-06-22T11:34:00;21.00;99.90
59999;DHT22;45859;51.378;6.736;2023-06-22T11:36:26;20.70;99.90
59999;DHT22;45859;51.378;6.736;2023-06-22T11:38:52;20.60;99.90
59999;DHT22;45859;51.378;6.736;2023-06-22T11:41:17;20.70;99.90
59999;DHT22;45859;51.378;6.736;2023-06-22T11:43:43;20.70;99.90
59999;DHT22;45859;51.378;6.736;2023-06-22T11:46:09;20.70;99.90
59999;DHT22;45859;51.378;6.736;2023-06-22T11:48:35;20.60;99.90
59999;DHT22;45859;51.378;6.736;2023-06-22T11:51:01;20.60;99.90
59999;DHT22;45859;51.378;6.736;2023-06-22T11:53:28;20.50;99.90
59999;DHT22;45859;51.378;6.736;2023-06-22T11:55:54;20.50;99.90
59999;DHT22;45859;51.378;6.736;2023-06-22T11:58:21;20.50;99.90
59999;DHT22;45859;51.378;6.736;2023-06-22T12:00:46;20.50;99.90
59999;DHT22;45859;51.378;6.736;2023-06-22T12:03:12;20.50;99.90
59999;DHT22;45859;51.378;6.736;2023-06-22T12:05:38;20.60;99.90
59999;DHT22;45859;51.378;6.736;2023-06-22T12:08:04;20.60;99.90
59999;DHT22;45859;51.378;6.736;2023-06-22T12:10:30;20.60;99.90
59999;DHT22;45859;51.378;6.736;2023-06-22T12:12:56;20.70;99.90
59999;DHT22;45859;51.378;6.736;2023-06-22T12:15:23;20.70;99.90
59999;DHT22;45859;51.378;6.736;2023-06-22T12:17:48;20.70;99.90
59999;DHT22;45859;51.378;6.736;2023-06-22T12:20:14;20.70;99.90
59999;DHT22;45859;51.378;6.736;2023-06-22T12:22:41;20.80;99.90
59999;DHT22;45859;51.378;6.736;2023-06-22T12:25:07;21.00;99.90
59999;DHT22;45859;51.378;6.736;2023-06-22T12:27:33;21.10;99.90
59999;DHT22;45859;51.378;6.736;2023-06-22T12:29:59;21.30;99.90
59999;DHT22;45859;51.378;6.736;2023-06-22T12:32:25;21.30;99.90
59999;DHT22;45859;51.378;6.736;2023-06-22T12:34:51;21.30;99.90
59999;DHT22;45859;51.378;6.736;2023-06-22T12:37:16;21.40;99.90
59999;DHT22;45859;51.378;6.736;2023-06-22T12:39:42;21.40;99.90
59999;DHT22;45859;51.378;6.736;2023-06-22T12:42:08;21.40;99.90
59999;DHT22;45859;51.378;6.736;2023-06-22T12:44:38;21.50;99.90
59999;DHT22;45859;51.378;6.736;2023-06-22T12:47:04;21.40;99.90
59999;DHT22;45859;51.378;6.736;2023-06-22T12:51:58;21.40;99.90
59999;DHT22;45859;51.378;6.736;2023-06-22T12:54:24;21.40;99.90
59999;DHT22;45859;51.378;6.736;2023-06-22T12:56:50;21.50;99.90
59999;DHT22;45859;51.378;6.736;2023-06-22T12:59:16;21.50;99.90
59999;DHT22;45859;51.378;6.736;2023-06-22T13:01:43;21.40;99.90
59999;DHT22;45859;51.378;6.736;2023-06-22T13:04:11;21.40;99.90
59999;DHT22;45859;51.378;6.736;2023-06-22T13:06:40;21.20;99.90
59999;DHT22;45859;51.378;6.736;2023-06-22T13:09:06;21.20;99.90
59999;DHT22;45859;51.378;6.736;2023-06-22T13:11:31;21.30;99.90
59999;DHT22;45859;51.378;6.736;2023-06-22T13:13:57;21.20;99.90
59999;DHT22;45859;51.378;6.736;2023-06-22T13:16:23;21.20;99.90
59999;DHT22;45859;51.378;6.736;2023-06-22T13:18:48;21.10;99.90
59999;DHT22;45859;51.378;6.736;2023-06-22T13:21:14;21.20;99.90
59999;DHT22;45859;51.378;6.736;2023-06-22T13:23:40;21.20;99.90
59999;DHT22;45859;51.378;6.736;2023-06-22T13:26:07;21.20;99.90
59999;DHT22;45859;51.378;6.736;2023-06-22T13:28:32;21.30;99.90
59999;DHT22;45859;51.378;6.736;2023-06-22T13:30:58;21.30;99.90
59999;DHT22;45859;51.378;6.736;2023-06-22T13:33:24;21.30;99.90
59999;DHT22;45859;51.378;6.736;2023-06-22T13:35:49;21.40;99.90
59999;DHT22;45859;51.378;6.736;2023-06-22T13:38:15;21.60;99.90
59999;DHT22;45859;51.378;6.736;2023-06-22T13:40:41;21.60;99.90
59999;DHT22;45859;51.378;6.736;2023-06-22T13:43:06;21.80;99.90
59999;DHT22;45859;51.378;6.736;2023-06-22T13:45:32;22.00;99.90
59999;DHT22;45859;51.378;6.736;2023-06-22T13:47:58;21.90;99.90
59999;DHT22;45859;51.378;6.736;2023-06-22T13:50:24;22.20;99.90
59999;DHT22;45859;51.378;6.736;2023-06-22T13:52:53;22.10;99.90
59999;DHT22;45859;51.378;6.736;2023-06-22T13:55:18;22.10;99.90
59999;DHT22;45859;51.378;6.736;2023-06-22T13:57:46;22.30;99.90
59999;DHT22;45859;51.378;6.736;2023-06-22T14:00:12;22.50;99.90
59999;DHT22;45859;51.378;6.736;2023-06-22T14:02:38;22.40;99.90
59999;DHT22;45859;51.378;6.736;2023-06-22T14:05:05;22.40;99.90
59999;DHT22;45859;51.378;6.736;2023-06-22T14:07:31;22.40;99.90
59999;DHT22;45859;51.378;6.736;2023-06-22T14:09:57;22.30;99.90
59999;DHT22;45859;51.378;6.736;2023-06-22T14:12:24;22.20;99.90
59999;DHT22;45859;51.378;6.736;2023-06-22T14:14:49;22.00;99.90
59999;DHT22;45859;51.378;6.736;2023-06-22T14:17:15;21.90;99.90
59999;DHT22;45859;51.378;6.736;2023-06-22T14:19:41;21.90;99.90
59999;DHT22;45859;51.378;6.736;2023-06-22T14:22:06;21.90;99.90
59999;DHT22;45859;51.378;6.736;2023-06-22T14:24:32;21.90;99.90
59999;DHT22;45859;51.378;6.736;2023-06-22T14:26:58;21.80;99.90
59999;DHT22;45859;51.378;6.736;2023-06-22T14:29:24;21.70;99.90
59999;DHT22;45859;51.378;6.736;2023-06-22T14:31:50;21.70;99.90
59999;DHT22;45859;51.378;6.736;2023-06-22T14:34:16;21.70;99.90
59999;DHT22;45859;51.378;6.736;2023-06-22T14:36:42;21.60;99.90
59999;DHT22;45859;51.378;6.736;2023-06-22T14:39:09;21.60;99.90
59999;DHT22;45859;51.378;6.736;2023-06-22T14:41:34;21.60;99.90
59999;DHT22;45859;51.378;6.736;2023-06-22T14:44:00;21.60;99.90
59999;DHT22;45859;51.378;6.736;2023-06-22T14:46:26;21.70;99.90
59999;DHT22;45859;51.378;6.736;2023-06-22T14:48:52;21.70;99.90
59999;DHT22;45859;51.378;6.736;2023-06-22T14:51:18;21.70;99.90
59999;DHT22;45859;51.378;6.736;2023-06-22T14:53:45;21.80;99.90
59999;DHT22;45859;51.378;6.736;2023-06-22T14:56:10;21.80;99.90
59999;DHT22;45859;51.378;6.736;2023-06-22T14:58:39;21.70;99.90
59999;DHT22;45859;51.378;6.736;2023-06-22T15:01:05;21.70;99.90
59999;DHT22;45859;51.378;6.736;2023-06-22T15:03:34;21.70;99.90
59999;DHT22;45859;51.378;6.736;2023-06-22T15:06:01;21.70;99.90
59999;DHT22;45859;51.378;6.736;2023-06-22T15:08:28;21.50;99.90
59999;DHT22;45859;51.378;6.736;2023-06-22T15:10:54;21.50;99.90
59999;DHT22;45859;51.378;6.736;2023-06-22T15:13:20;21.50;99.90
59999;DHT22;45859;51.378;6.736;2023-06-22T15:15:48;21.40;99.90
59999;DHT22;45859;51.378;6.736;2023-06-22T15:18:15;21.30;99.90
59999;DHT22;45859;51.378;6.736;2023-06-22T15:20:41;21.20;99.90
59999;DHT22;45859;51.378;6.736;2023-06-22T15:23:10;21.20;99.90
59999;DHT22;45859;51.378;6.736;2023-06-22T15:25:36;21.20;99.90
59999;DHT22;45859;51.378;6.736;2023-06-22T15:28:01;21.20;99.90
59999;DHT22;45859;51.378;6.736;2023-06-22T15:30:28;21.20;99.90
59999;DHT22;45859;51.378;6.736;2023-06-22T15:32:54;21.20;99.90
59999;DHT22;45859;51.378;6.736;2023-06-22T15:35:22;21.20;99.90
59999;DHT22;45859;51.378;6.736;2023-06-22T15:37:48;21.10;99.90
59999;DHT22;45859;51.378;6.736;2023-06-22T15:40:13;21.10;99.90